createdAt,value
2023-11-15T00:00:33.604Z,9.20
2023-11-15T00:01:34.584Z,9.21
2023-11-15T00:02:35.550Z,9.23
2023-11-15T00:03:33.857Z,9.06
2023-11-15T00:04:33.571Z,9.15
2023-11-15T00:05:33.643Z,9.16
2023-11-15T00:06:33.703Z,9.18
2023-11-15T00:07:33.547Z,9.25
2023-11-15T00:08:33.566Z,9.13
2023-11-15T00:09:33.537Z,9.16
2023-11-15T00:10:33.515Z,9.23
2023-11-15T00:11:33.587Z,9.12
2023-11-15T00:12:33.553Z,9.16
2023-11-15T00:13:33.506Z,9.09
2023-11-15T00:14:33.549Z,9.27
2023-11-15T00:15:33.555Z,9.10
2023-11-15T00:16:33.513Z,9.15
2023-11-15T00:17:33.535Z,9.20
2023-11-15T00:18:33.530Z,9.21
2023-11-15T00:19:33.461Z,9.20
2023-11-15T00:20:33.495Z,9.25
2023-11-15T00:21:33.464Z,9.18
2023-11-15T00:22:33.470Z,9.18
2023-11-15T00:23:33.437Z,9.16
2023-11-15T00:24:33.454Z,9.18
2023-11-15T00:25:33.419Z,9.18
2023-11-15T00:26:33.772Z,9.20
2023-11-15T00:27:33.402Z,9.16
2023-11-15T00:28:33.402Z,9.18
2023-11-15T00:29:33.425Z,9.23
2023-11-15T00:30:33.470Z,9.31
2023-11-15T00:31:33.390Z,9.27
2023-11-15T00:32:33.412Z,9.21
2023-11-15T00:33:33.408Z,9.31
2023-11-15T00:34:33.366Z,9.35
2023-11-15T00:35:33.425Z,9.42
2023-11-15T00:36:33.383Z,9.34
2023-11-15T00:37:33.327Z,9.30
2023-11-15T00:38:33.371Z,9.31
2023-11-15T00:39:33.319Z,9.25
2023-11-15T00:40:33.317Z,9.35
2023-11-15T00:41:33.422Z,9.23
2023-11-15T00:42:33.308Z,9.30
2023-11-15T00:43:33.293Z,9.24
2023-11-15T00:44:33.420Z,9.25
2023-11-15T00:45:33.291Z,9.27
2023-11-15T00:46:33.284Z,9.34
2023-11-15T00:47:33.306Z,9.27
2023-11-15T00:48:33.297Z,9.35
2023-11-15T00:49:33.252Z,9.28
2023-11-15T00:50:33.257Z,9.32
2023-11-15T00:51:33.256Z,9.40
2023-11-15T00:52:33.227Z,9.30
2023-11-15T00:53:33.227Z,9.24
2023-11-15T00:54:33.221Z,9.32
2023-11-15T00:55:33.215Z,9.27
2023-11-15T00:56:33.242Z,9.31
2023-11-15T00:57:33.208Z,9.38
2023-11-15T00:58:33.184Z,9.38
2023-11-15T00:59:33.194Z,9.39
2023-11-15T01:00:33.179Z,9.38
2023-11-15T01:01:33.169Z,9.43
2023-11-15T01:02:33.282Z,9.48
2023-11-15T01:03:33.235Z,9.38
2023-11-15T01:04:33.164Z,9.39
2023-11-15T01:05:33.197Z,9.39
2023-11-15T01:06:33.136Z,9.40
2023-11-15T01:07:33.143Z,9.40
2023-11-15T01:08:33.126Z,9.34
2023-11-15T01:09:33.132Z,9.32
2023-11-15T01:10:33.101Z,9.53
2023-11-15T01:11:33.107Z,9.46
2023-11-15T01:12:33.092Z,9.43
2023-11-15T01:13:34.076Z,9.46
2023-11-15T01:14:33.145Z,9.45
2023-11-15T01:15:33.060Z,9.45
2023-11-15T01:16:33.131Z,9.52
2023-11-15T01:17:33.081Z,9.52
2023-11-15T01:18:33.039Z,9.52
2023-11-15T01:19:33.044Z,9.49
2023-11-15T01:20:33.060Z,9.49
2023-11-15T01:21:33.033Z,9.48
2023-11-15T01:22:33.016Z,9.45
2023-11-15T01:23:33.055Z,9.56
2023-11-15T01:24:33.023Z,9.49
2023-11-15T01:25:32.993Z,9.50
2023-11-15T01:26:33.066Z,9.53
2023-11-15T01:27:32.997Z,9.39
2023-11-15T01:28:32.977Z,9.49
2023-11-15T01:29:32.995Z,9.46
2023-11-15T01:30:32.953Z,9.50
2023-11-15T01:31:32.971Z,9.50
2023-11-15T01:32:32.998Z,9.52
2023-11-15T01:33:33.121Z,9.52
2023-11-15T01:34:32.971Z,9.48
2023-11-15T01:35:32.930Z,9.53
2023-11-15T01:36:32.929Z,9.56
2023-11-15T01:37:32.908Z,9.52
2023-11-15T01:38:32.915Z,9.60
2023-11-15T01:39:32.895Z,9.63
2023-11-15T01:40:32.903Z,9.57
2023-11-15T01:41:32.902Z,9.64
2023-11-15T01:42:32.903Z,9.56
2023-11-15T01:43:32.890Z,9.67
2023-11-15T01:44:32.901Z,9.64
2023-11-15T01:45:32.890Z,9.71
2023-11-15T01:46:32.860Z,9.64
2023-11-15T01:47:32.892Z,9.60
2023-11-15T01:48:32.831Z,9.61
2023-11-15T01:49:32.824Z,9.56
2023-11-15T01:50:32.992Z,9.73
2023-11-15T01:51:32.808Z,9.70
2023-11-15T01:52:32.813Z,9.68
2023-11-15T01:53:32.868Z,9.78
2023-11-15T01:54:32.796Z,9.66
2023-11-15T01:55:32.800Z,9.71
2023-11-15T01:56:32.792Z,9.64
2023-11-15T01:57:32.769Z,9.73
2023-11-15T01:58:32.752Z,9.73
2023-11-15T01:59:32.777Z,9.66
2023-11-15T02:00:32.791Z,9.64
2023-11-15T02:01:32.784Z,9.67
2023-11-15T02:02:32.821Z,9.73
2023-11-15T02:03:32.813Z,9.66
2023-11-15T02:04:32.731Z,9.75
2023-11-15T02:05:32.740Z,9.64
2023-11-15T02:06:32.738Z,9.71
2023-11-15T02:07:32.701Z,9.63
2023-11-15T02:08:32.697Z,9.66
2023-11-15T02:09:32.681Z,9.70
2023-11-15T02:10:32.686Z,9.63
2023-11-15T02:11:32.720Z,9.67
2023-11-15T02:12:32.673Z,9.71
2023-11-15T02:13:32.681Z,9.58
2023-11-15T02:14:32.693Z,9.66
2023-11-15T02:15:32.648Z,9.61
2023-11-15T02:16:32.678Z,9.68
2023-11-15T02:17:32.683Z,9.66
2023-11-15T02:18:32.664Z,9.63
2023-11-15T02:19:32.624Z,9.71
2023-11-15T02:20:32.642Z,9.70
2023-11-15T02:21:32.629Z,9.66
2023-11-15T02:22:32.618Z,9.66
2023-11-15T02:23:32.705Z,9.64
2023-11-15T02:24:32.624Z,9.73
2023-11-15T02:25:32.573Z,9.71
2023-11-15T02:26:33.675Z,9.61
2023-11-15T02:27:32.572Z,9.67
2023-11-15T02:28:32.580Z,9.63
2023-11-15T02:29:32.598Z,9.67
2023-11-15T02:30:32.546Z,9.58
2023-11-15T02:31:32.547Z,9.58
2023-11-15T02:32:32.603Z,9.68
2023-11-15T02:33:32.562Z,9.68
2023-11-15T02:34:32.530Z,9.60
2023-11-15T02:35:32.547Z,9.71
2023-11-15T02:36:32.511Z,9.64
2023-11-15T02:37:32.500Z,9.61
2023-11-15T02:38:32.501Z,9.68
2023-11-15T02:39:32.508Z,9.67
2023-11-15T02:40:32.470Z,9.66
2023-11-15T02:41:32.479Z,9.58
2023-11-15T02:42:32.479Z,9.70
2023-11-15T02:43:32.451Z,9.66
2023-11-15T02:44:32.467Z,9.78
2023-11-15T02:45:32.447Z,9.75
2023-11-15T02:46:32.452Z,9.75
2023-11-15T02:47:32.506Z,9.68
2023-11-15T02:48:32.470Z,9.61
2023-11-15T02:49:32.407Z,9.57
2023-11-15T02:50:32.468Z,9.73
2023-11-15T02:51:32.414Z,9.57
2023-11-15T02:52:32.387Z,9.52
2023-11-15T02:53:32.445Z,9.52
2023-11-15T02:54:32.380Z,9.50
2023-11-15T02:55:32.379Z,9.58
2023-11-15T02:56:32.366Z,9.66
2023-11-15T02:57:32.359Z,9.58
2023-11-15T02:58:32.538Z,9.60
2023-11-15T02:59:32.372Z,9.63
2023-11-15T03:00:32.336Z,9.58
2023-11-15T03:01:32.338Z,9.61
2023-11-15T03:02:32.420Z,9.68
2023-11-15T03:03:32.344Z,9.56
2023-11-15T03:04:32.346Z,9.60
2023-11-15T03:05:32.328Z,9.66
2023-11-15T03:06:32.277Z,9.64
2023-11-15T03:07:32.284Z,9.66
2023-11-15T03:08:32.488Z,9.71
2023-11-15T03:09:32.265Z,9.61
2023-11-15T03:10:32.360Z,9.64
2023-11-15T03:11:32.286Z,9.64
2023-11-15T03:12:32.248Z,9.66
2023-11-15T03:13:32.238Z,9.66
2023-11-15T03:14:32.359Z,9.60
2023-11-15T03:15:32.258Z,9.60
2023-11-15T03:16:32.305Z,9.49
2023-11-15T03:17:32.291Z,9.56
2023-11-15T03:18:32.290Z,9.58
2023-11-15T03:19:32.224Z,9.68
2023-11-15T03:20:32.230Z,9.63
2023-11-15T03:21:32.193Z,9.66
2023-11-15T03:22:32.172Z,9.58
2023-11-15T03:23:32.193Z,9.60
2023-11-15T03:24:32.190Z,9.57
2023-11-15T03:25:32.173Z,9.58
2023-11-15T03:26:32.185Z,9.66
2023-11-15T03:27:32.175Z,9.60
2023-11-15T03:28:32.139Z,9.58
2023-11-15T03:29:32.155Z,9.56
2023-11-15T03:30:32.125Z,9.52
2023-11-15T03:31:32.120Z,9.57
2023-11-15T03:32:32.269Z,9.53
2023-11-15T03:33:32.217Z,9.56
2023-11-15T03:34:32.225Z,9.61
2023-11-15T03:35:32.206Z,9.63
2023-11-15T03:36:32.075Z,9.60
2023-11-15T03:37:32.068Z,9.70
2023-11-15T03:38:32.108Z,9.60
2023-11-15T03:39:32.057Z,9.63
2023-11-15T03:40:32.060Z,9.67
2023-11-15T03:41:32.061Z,9.67
2023-11-15T03:42:32.033Z,9.67
2023-11-15T03:43:32.048Z,9.61
2023-11-15T03:44:32.086Z,9.56
2023-11-15T03:45:32.023Z,9.60
2023-11-15T03:46:32.035Z,9.57
2023-11-15T03:47:32.062Z,9.56
2023-11-15T03:48:32.090Z,9.53
2023-11-15T03:49:32.035Z,9.43
2023-11-15T03:50:32.116Z,9.52
2023-11-15T03:51:31.975Z,9.52
2023-11-15T03:52:32.024Z,9.42
2023-11-15T03:53:32.047Z,9.46
2023-11-15T03:54:31.942Z,9.50
2023-11-15T03:55:32.101Z,9.46
2023-11-15T03:56:31.960Z,9.42
2023-11-15T03:57:31.933Z,9.46
2023-11-15T03:58:32.029Z,9.43
2023-11-15T03:59:31.921Z,9.46
2023-11-15T04:00:31.922Z,9.46
2023-11-15T04:01:32.984Z,9.49
2023-11-15T04:02:32.017Z,9.56
2023-11-15T04:03:32.048Z,9.49
2023-11-15T04:04:32.008Z,9.39
2023-11-15T04:05:31.993Z,9.50
2023-11-15T04:06:31.887Z,9.50
2023-11-15T04:07:31.881Z,9.42
2023-11-15T04:08:31.913Z,9.45
2023-11-15T04:09:31.848Z,9.40
2023-11-15T04:10:31.848Z,9.49
2023-11-15T04:11:31.865Z,9.53
2023-11-15T04:12:31.841Z,9.39
2023-11-15T04:13:31.817Z,9.52
2023-11-15T04:14:31.864Z,9.43
2023-11-15T04:15:31.805Z,9.43
2023-11-15T04:16:31.840Z,9.48
2023-11-15T04:17:31.894Z,9.45
2023-11-15T04:18:31.840Z,9.48
2023-11-15T04:19:31.789Z,9.53
2023-11-15T04:20:31.808Z,9.58
2023-11-15T04:21:31.777Z,9.58
2023-11-15T04:22:31.791Z,9.56
2023-11-15T04:23:31.763Z,9.60
2023-11-15T04:24:31.742Z,9.61
2023-11-15T04:25:31.743Z,9.60
2023-11-15T04:26:31.745Z,9.53
2023-11-15T04:27:31.775Z,9.52
2023-11-15T04:28:31.717Z,9.57
2023-11-15T04:29:31.708Z,9.66
2023-11-15T04:30:31.820Z,9.61
2023-11-15T04:31:31.724Z,9.50
2023-11-15T04:32:31.821Z,9.57
2023-11-15T04:33:31.753Z,9.60
2023-11-15T04:34:31.685Z,9.60
2023-11-15T04:35:31.711Z,9.50
2023-11-15T04:36:31.684Z,9.52
2023-11-15T04:37:31.656Z,9.63
2023-11-15T04:38:31.665Z,9.52
2023-11-15T04:39:31.664Z,9.53
2023-11-15T04:40:31.658Z,9.53
2023-11-15T04:41:31.673Z,9.56
2023-11-15T04:42:31.617Z,9.46
2023-11-15T04:43:31.618Z,9.49
2023-11-15T04:44:31.862Z,9.50
2023-11-15T04:45:31.619Z,9.53
2023-11-15T04:46:31.586Z,9.53
2023-11-15T04:47:31.671Z,9.52
2023-11-15T04:48:31.642Z,9.50
2023-11-15T04:49:31.579Z,9.39
2023-11-15T04:50:31.564Z,9.42
2023-11-15T04:51:31.555Z,9.31
2023-11-15T04:52:32.554Z,9.42
2023-11-15T04:53:31.549Z,9.32
2023-11-15T04:54:31.567Z,9.48
2023-11-15T04:55:31.536Z,9.42
2023-11-15T04:56:31.583Z,9.31
2023-11-15T04:57:31.527Z,9.32
2023-11-15T04:58:31.529Z,9.25
2023-11-15T04:59:31.555Z,9.35
2023-11-15T05:00:31.514Z,9.32
2023-11-15T05:01:31.511Z,9.20
2023-11-15T05:02:31.649Z,9.30
2023-11-15T05:03:31.670Z,9.31
2023-11-15T05:04:31.641Z,9.25
2023-11-15T05:05:31.550Z,9.30
2023-11-15T05:06:31.465Z,9.28
2023-11-15T05:07:31.465Z,9.32
2023-11-15T05:08:31.480Z,9.34
2023-11-15T05:09:31.438Z,9.30
2023-11-15T05:10:31.437Z,9.32
2023-11-15T05:11:31.488Z,9.32
2023-11-15T05:12:31.422Z,9.43
2023-11-15T05:13:31.415Z,9.39
2023-11-15T05:14:31.429Z,9.25
2023-11-15T05:15:31.409Z,9.25
2023-11-15T05:16:31.526Z,9.18
2023-11-15T05:17:31.483Z,9.16
2023-11-15T05:18:31.442Z,9.10
2023-11-15T05:19:31.369Z,9.06
2023-11-15T05:20:31.447Z,9.13
2023-11-15T05:21:31.351Z,9.20
2023-11-15T05:22:32.378Z,9.10
2023-11-15T05:23:31.374Z,9.10
2023-11-15T05:24:31.328Z,9.05
2023-11-15T05:25:31.366Z,9.13
2023-11-15T05:26:31.368Z,9.15
2023-11-15T05:27:31.325Z,9.04
2023-11-15T05:28:31.321Z,9.12
2023-11-15T05:29:31.387Z,9.02
2023-11-15T05:30:31.316Z,9.01
2023-11-15T05:31:31.354Z,9.04
2023-11-15T05:32:31.360Z,9.10
2023-11-15T05:33:31.318Z,9.06
2023-11-15T05:34:31.297Z,9.04
2023-11-15T05:35:31.346Z,8.94
2023-11-15T05:36:31.256Z,8.96
2023-11-15T05:37:31.252Z,8.91
2023-11-15T05:38:31.318Z,8.90
2023-11-15T05:39:31.247Z,8.94
2023-11-15T05:40:31.219Z,8.90
2023-11-15T05:41:31.236Z,8.87
2023-11-15T05:42:31.218Z,8.84
2023-11-15T05:43:31.205Z,8.84
2023-11-15T05:44:31.265Z,8.99
2023-11-15T05:45:31.181Z,8.86
2023-11-15T05:46:31.222Z,8.90
2023-11-15T05:47:31.253Z,8.96
2023-11-15T05:48:31.230Z,8.86
2023-11-15T05:49:31.165Z,8.91
2023-11-15T05:50:31.200Z,8.90
2023-11-15T05:51:31.137Z,8.84
2023-11-15T05:52:31.141Z,8.86
2023-11-15T05:53:31.155Z,8.91
2023-11-15T05:54:31.144Z,8.93
2023-11-15T05:55:31.156Z,8.86
2023-11-15T05:56:31.123Z,8.81
2023-11-15T05:57:31.103Z,8.86
2023-11-15T05:58:31.098Z,8.87
2023-11-15T05:59:31.115Z,8.75
2023-11-15T06:00:31.184Z,8.84
2023-11-15T06:01:31.117Z,8.84
2023-11-15T06:02:31.128Z,8.81
2023-11-15T06:03:31.122Z,8.83
2023-11-15T06:04:31.115Z,8.78
2023-11-15T06:05:31.067Z,8.79
2023-11-15T06:06:31.060Z,8.78
2023-11-15T06:07:31.037Z,8.78
2023-11-15T06:08:31.088Z,8.86
2023-11-15T06:09:31.022Z,8.79
2023-11-15T06:10:31.009Z,8.76
2023-11-15T06:11:31.064Z,8.87
2023-11-15T06:12:30.997Z,8.81
2023-11-15T06:13:30.993Z,8.91
2023-11-15T06:14:31.005Z,8.96
2023-11-15T06:15:30.969Z,8.93
2023-11-15T06:16:31.014Z,8.84
2023-11-15T06:17:31.070Z,8.90
2023-11-15T06:18:30.971Z,8.88
2023-11-15T06:19:30.934Z,8.86
2023-11-15T06:20:31.107Z,8.84
2023-11-15T06:21:30.937Z,8.91
2023-11-15T06:22:30.935Z,8.81
2023-11-15T06:23:30.936Z,8.79
2023-11-15T06:24:30.906Z,8.91
2023-11-15T06:25:30.894Z,8.90
2023-11-15T06:26:30.906Z,8.90
2023-11-15T06:27:30.904Z,8.90
2023-11-15T06:28:30.890Z,8.86
2023-11-15T06:29:30.945Z,8.88
2023-11-15T06:30:30.907Z,8.88
2023-11-15T06:31:30.861Z,8.87
2023-11-15T06:32:30.921Z,8.87
2023-11-15T06:33:31.012Z,8.84
2023-11-15T06:34:30.926Z,8.78
2023-11-15T06:35:30.858Z,8.78
2023-11-15T06:36:30.816Z,8.73
2023-11-15T06:37:30.814Z,8.68
2023-11-15T06:38:30.914Z,8.73
2023-11-15T06:39:30.816Z,8.55
2023-11-15T06:40:30.783Z,8.69
2023-11-15T06:41:30.791Z,8.65
2023-11-15T06:42:30.814Z,8.69
2023-11-15T06:43:30.823Z,8.65
2023-11-15T06:44:30.784Z,8.75
2023-11-15T06:45:30.757Z,8.81
2023-11-15T06:46:30.765Z,8.73
2023-11-15T06:47:30.836Z,8.81
2023-11-15T06:48:30.834Z,8.83
2023-11-15T06:49:30.719Z,8.84
2023-11-15T06:50:30.794Z,8.90
2023-11-15T06:51:30.714Z,8.86
2023-11-15T06:52:30.751Z,8.84
2023-11-15T06:53:30.724Z,8.87
2023-11-15T06:54:30.712Z,8.88
2023-11-15T06:55:30.688Z,8.87
2023-11-15T06:56:30.682Z,8.87
2023-11-15T06:57:30.778Z,8.91
2023-11-15T06:58:30.668Z,8.91
2023-11-15T06:59:30.679Z,9.02
2023-11-15T07:00:30.648Z,8.91
2023-11-15T07:01:30.677Z,8.96
2023-11-15T07:02:30.696Z,8.96
2023-11-15T07:03:30.733Z,8.97
2023-11-15T07:04:30.649Z,8.97
2023-11-15T07:05:30.621Z,9.01
2023-11-15T07:06:30.613Z,9.04
2023-11-15T07:07:30.608Z,9.09
2023-11-15T07:08:30.662Z,9.06
2023-11-15T07:09:30.598Z,9.01
2023-11-15T07:10:30.600Z,9.09
2023-11-15T07:11:30.591Z,9.15
2023-11-15T07:12:30.571Z,9.15
2023-11-15T07:13:30.556Z,9.12
2023-11-15T07:14:30.601Z,9.23
2023-11-15T07:15:30.555Z,9.18
2023-11-15T07:16:30.559Z,9.18
2023-11-15T07:17:31.583Z,9.24
2023-11-15T07:18:30.720Z,9.32
2023-11-15T07:19:30.531Z,9.34
2023-11-15T07:20:30.531Z,9.42
2023-11-15T07:21:30.496Z,9.45
2023-11-15T07:22:30.498Z,9.32
2023-11-15T07:23:30.530Z,9.52
2023-11-15T07:24:30.510Z,9.40
2023-11-15T07:25:30.477Z,9.48
2023-11-15T07:26:30.494Z,9.46
2023-11-15T07:27:30.458Z,9.52
2023-11-15T07:28:30.432Z,9.32
2023-11-15T07:29:31.558Z,9.39
2023-11-15T07:30:30.453Z,9.31
2023-11-15T07:31:30.455Z,9.30
2023-11-15T07:32:30.442Z,9.28
2023-11-15T07:33:30.471Z,9.27
2023-11-15T07:34:30.418Z,9.20
2023-11-15T07:35:30.438Z,9.31
2023-11-15T07:36:30.388Z,9.21
2023-11-15T07:37:30.388Z,9.23
2023-11-15T07:38:30.431Z,9.27
2023-11-15T07:39:30.440Z,9.28
2023-11-15T07:40:30.397Z,9.24
2023-11-15T07:41:30.402Z,9.23
2023-11-15T07:42:30.349Z,9.35
2023-11-15T07:43:30.356Z,9.40
2023-11-15T07:44:30.360Z,9.42
2023-11-15T07:45:30.357Z,9.43
2023-11-15T07:46:30.384Z,9.32
2023-11-15T07:47:30.442Z,9.39
2023-11-15T07:48:30.438Z,9.35
2023-11-15T07:49:30.378Z,9.31
2023-11-15T07:50:30.312Z,9.45
2023-11-15T07:51:30.307Z,9.52
2023-11-15T07:52:30.273Z,9.42
2023-11-15T07:53:30.298Z,9.49
2023-11-15T07:54:30.271Z,9.46
2023-11-15T07:55:30.264Z,9.50
2023-11-15T07:56:30.276Z,9.52
2023-11-15T07:57:30.236Z,9.57
2023-11-15T07:58:30.645Z,9.50
2023-11-15T07:59:30.275Z,9.50
2023-11-15T08:00:30.217Z,9.57
2023-11-15T08:01:30.231Z,9.52
2023-11-15T08:02:30.548Z,9.50
2023-11-15T08:03:30.404Z,9.52
2023-11-15T08:04:30.310Z,9.49
2023-11-15T08:05:30.288Z,9.46
2023-11-15T08:06:30.202Z,9.45
2023-11-15T08:07:30.202Z,9.42
2023-11-15T08:08:30.188Z,9.43
2023-11-15T08:09:30.165Z,9.40
2023-11-15T08:10:30.157Z,9.39
2023-11-15T08:11:30.256Z,9.43
2023-11-15T08:12:30.141Z,9.45
2023-11-15T08:13:30.249Z,9.39
2023-11-15T08:14:30.261Z,9.50
2023-11-15T08:15:30.104Z,9.48
2023-11-15T08:16:30.241Z,9.64
2023-11-15T08:17:30.202Z,9.68
2023-11-15T08:18:30.185Z,9.63
2023-11-15T08:19:30.127Z,9.61
2023-11-15T08:20:30.078Z,9.75
2023-11-15T08:21:30.092Z,9.75
2023-11-15T08:22:30.119Z,9.81
2023-11-15T08:23:30.076Z,9.75
2023-11-15T08:24:30.075Z,9.68
2023-11-15T08:25:30.133Z,9.81
2023-11-15T08:26:30.030Z,9.78
2023-11-15T08:27:30.028Z,9.86
2023-11-15T08:28:30.011Z,9.82
2023-11-15T08:29:31.033Z,9.89
2023-11-15T08:30:30.013Z,9.94
2023-11-15T08:31:30.010Z,10.04
2023-11-15T08:32:29.990Z,10.12
2023-11-15T08:33:30.068Z,10.21
2023-11-15T08:34:29.995Z,10.34
2023-11-15T08:35:29.984Z,10.37
2023-11-15T08:36:30.715Z,10.39
2023-11-15T08:37:29.970Z,10.34
2023-11-15T08:38:29.950Z,10.28
2023-11-15T08:39:29.960Z,10.25
2023-11-15T08:40:29.974Z,10.42
2023-11-15T08:41:30.002Z,10.34
2023-11-15T08:42:29.972Z,10.46
2023-11-15T08:43:29.936Z,10.43
2023-11-15T08:44:29.992Z,10.40
2023-11-15T08:45:29.993Z,10.55
2023-11-15T08:46:29.904Z,10.52
2023-11-15T08:47:30.008Z,10.44
2023-11-15T08:48:29.998Z,10.51
2023-11-15T08:49:29.895Z,10.43
2023-11-15T08:50:29.871Z,10.37
2023-11-15T08:51:29.870Z,10.36
2023-11-15T08:52:29.854Z,10.37
2023-11-15T08:53:29.856Z,10.30
2023-11-15T08:54:29.840Z,10.30
2023-11-15T08:55:29.868Z,10.22
2023-11-15T08:56:29.890Z,10.22
2023-11-15T08:57:30.819Z,10.18
2023-11-15T08:58:29.807Z,10.14
2023-11-15T08:59:29.873Z,10.36
2023-11-15T09:00:29.898Z,10.37
2023-11-15T09:01:29.804Z,10.40
2023-11-15T09:02:29.831Z,10.47
2023-11-15T09:03:29.965Z,10.51
2023-11-15T09:04:29.828Z,10.59
2023-11-15T09:05:29.786Z,10.70
2023-11-15T09:06:29.815Z,10.99
2023-11-15T09:07:30.774Z,11.21
2023-11-15T09:08:29.751Z,11.28
2023-11-15T09:09:29.742Z,11.20
2023-11-15T09:10:29.772Z,11.19
2023-11-15T09:11:29.738Z,10.99
2023-11-15T09:12:29.725Z,10.89
2023-11-15T09:13:29.761Z,10.95
2023-11-15T09:14:29.721Z,10.99
2023-11-15T09:15:29.708Z,11.03
2023-11-15T09:16:29.742Z,11.02
2023-11-15T09:17:29.726Z,11.14
2023-11-15T09:18:29.778Z,11.19
2023-11-15T09:19:29.685Z,11.31
2023-11-15T09:20:29.675Z,12.20
2023-11-15T09:21:29.664Z,12.29
2023-11-15T09:22:29.665Z,13.46
2023-11-15T09:23:30.939Z,13.81
2023-11-15T09:24:29.656Z,14.20
2023-11-15T09:25:29.641Z,13.99
2023-11-15T09:26:29.660Z,13.59
2023-11-15T09:27:29.723Z,13.09
2023-11-15T09:28:29.670Z,12.69
2023-11-15T09:29:29.629Z,12.64
2023-11-15T09:30:29.596Z,12.56
2023-11-15T09:31:29.589Z,12.39
2023-11-15T09:32:29.626Z,12.13
2023-11-15T09:33:31.245Z,12.08
2023-11-15T09:34:30.640Z,12.01
2023-11-15T09:35:29.793Z,11.82
2023-11-15T09:36:29.559Z,11.74
2023-11-15T09:37:29.547Z,11.65
2023-11-15T09:38:29.610Z,11.56
2023-11-15T09:39:29.533Z,11.46
2023-11-15T09:40:29.537Z,11.43
2023-11-15T09:41:29.521Z,11.36
2023-11-15T09:42:29.565Z,11.36
2023-11-15T09:43:29.533Z,11.34
2023-11-15T09:44:29.495Z,11.24
2023-11-15T09:45:29.511Z,11.24
2023-11-15T09:46:29.565Z,11.19
2023-11-15T09:47:29.532Z,11.17
2023-11-15T09:48:29.641Z,11.19
2023-11-15T09:49:29.567Z,11.47
2023-11-15T09:50:29.464Z,11.53
2023-11-15T09:51:29.440Z,11.43
2023-11-15T09:53:32.026Z,11.59
2023-11-15T09:54:34.938Z,11.68
2023-11-15T09:55:30.454Z,11.57
2023-11-15T09:56:30.841Z,11.71
2023-11-15T09:57:29.412Z,11.70
2023-11-15T09:58:29.421Z,11.68
2023-11-15T09:59:29.413Z,11.85
2023-11-15T10:00:29.415Z,11.87
2023-11-15T10:01:29.441Z,11.93
2023-11-15T10:02:29.442Z,11.86
2023-11-15T10:03:29.434Z,11.86
2023-11-15T10:04:29.367Z,11.75
2023-11-15T10:05:29.358Z,11.72
2023-11-15T10:06:29.343Z,11.56
2023-11-15T10:07:29.331Z,11.62
2023-11-15T10:08:29.348Z,11.49
2023-11-15T10:09:29.321Z,11.53
2023-11-15T10:10:29.338Z,11.61
2023-11-15T10:11:29.322Z,11.64
2023-11-15T10:12:29.313Z,11.67
2023-11-15T10:13:30.391Z,11.96
2023-11-15T10:14:29.313Z,12.15
2023-11-15T10:15:29.297Z,12.39
2023-11-15T10:16:29.284Z,12.42
2023-11-15T10:17:29.320Z,12.46
2023-11-15T10:18:29.406Z,12.30
2023-11-15T10:19:29.274Z,12.31
2023-11-15T10:20:29.258Z,12.13
2023-11-15T10:21:29.261Z,12.27
2023-11-15T10:22:29.253Z,12.31
2023-11-15T10:23:29.229Z,13.32
2023-11-15T10:24:29.241Z,13.70
2023-11-15T10:25:29.226Z,13.36
2023-11-15T10:26:29.211Z,13.29
2023-11-15T10:27:29.196Z,13.22
2023-11-15T10:28:29.194Z,13.24
2023-11-15T10:29:29.225Z,13.37
2023-11-15T10:30:29.179Z,13.27
2023-11-15T10:31:29.189Z,13.27
2023-11-15T10:32:29.183Z,13.37
2023-11-15T10:33:29.201Z,13.24
2023-11-15T10:34:34.011Z,13.46
2023-11-15T10:35:31.144Z,14.20
2023-11-15T10:36:29.149Z,14.13
2023-11-15T10:37:29.707Z,14.47
2023-11-15T10:38:29.130Z,15.19
2023-11-15T10:39:29.157Z,16.53
2023-11-15T10:40:29.115Z,17.44
2023-11-15T10:41:29.150Z,17.62
2023-11-15T10:42:29.148Z,18.59
2023-11-15T10:43:29.096Z,18.95
2023-11-15T10:44:29.091Z,18.13
2023-11-15T10:45:29.359Z,18.43
2023-11-15T10:46:29.072Z,18.04
2023-11-15T10:47:29.090Z,18.33
2023-11-15T10:48:29.083Z,18.42
2023-11-15T10:49:29.049Z,17.91
2023-11-15T10:50:29.031Z,17.59
2023-11-15T10:51:29.051Z,17.13
2023-11-15T10:52:29.019Z,17.38
2023-11-15T10:53:29.031Z,18.15
2023-11-15T10:54:29.839Z,18.99
2023-11-15T10:55:30.792Z,19.87
2023-11-15T10:56:29.008Z,19.10
2023-11-15T10:57:29.494Z,18.65
2023-11-15T10:58:29.061Z,17.73
2023-11-15T10:59:28.991Z,17.15
2023-11-15T11:00:28.967Z,16.45
2023-11-15T11:01:29.025Z,16.12
2023-11-15T11:02:29.045Z,15.67
2023-11-15T11:03:29.157Z,15.15
2023-11-15T11:04:29.067Z,14.93
2023-11-15T11:05:28.957Z,14.46
2023-11-15T11:06:28.921Z,14.32
2023-11-15T11:07:28.923Z,14.39
2023-11-15T11:08:28.934Z,14.37
2023-11-15T11:09:28.927Z,13.95
2023-11-15T11:10:30.073Z,13.88
2023-11-15T11:11:28.912Z,13.74
2023-11-15T11:12:28.910Z,13.46
2023-11-15T11:13:28.879Z,13.25
2023-11-15T11:14:29.065Z,13.37
2023-11-15T11:15:28.936Z,13.27
2023-11-15T11:16:34.582Z,13.36
2023-11-15T11:17:30.899Z,13.49
2023-11-15T11:18:28.992Z,13.49
2023-11-15T11:19:28.828Z,13.40
2023-11-15T11:20:28.833Z,14.68
2023-11-15T11:21:28.838Z,16.09
2023-11-15T11:22:28.847Z,17.40
2023-11-15T11:23:29.638Z,17.54
2023-11-15T11:24:28.806Z,18.34
2023-11-15T11:25:29.797Z,18.97
2023-11-15T11:26:28.808Z,19.40
2023-11-15T11:27:28.862Z,18.47
2023-11-15T11:28:28.771Z,18.84
2023-11-15T11:29:28.764Z,19.02
2023-11-15T11:30:28.791Z,18.49
2023-11-15T11:31:28.775Z,17.55
2023-11-15T11:32:28.912Z,16.80
2023-11-15T11:33:28.793Z,16.85
2023-11-15T11:34:28.740Z,17.32
2023-11-15T11:35:28.730Z,16.81
2023-11-15T11:36:28.729Z,16.31
2023-11-15T11:37:28.723Z,15.79
2023-11-15T11:38:28.705Z,15.66
2023-11-15T11:39:28.693Z,15.21
2023-11-15T11:40:28.689Z,14.88
2023-11-15T11:41:28.681Z,14.90
2023-11-15T11:42:28.725Z,15.76
2023-11-15T11:43:28.696Z,15.63
2023-11-15T11:44:28.675Z,16.70
2023-11-15T11:45:28.654Z,17.28
2023-11-15T11:46:28.660Z,17.30
2023-11-15T11:47:28.658Z,16.96
2023-11-15T11:48:28.746Z,16.49
2023-11-15T11:49:28.687Z,16.03
2023-11-15T11:50:28.622Z,15.94
2023-11-15T11:51:28.615Z,16.03
2023-11-15T11:52:28.716Z,16.09
2023-11-15T11:53:28.612Z,16.16
2023-11-15T11:54:28.636Z,16.01
2023-11-15T11:55:28.591Z,15.72
2023-11-15T11:56:28.581Z,15.49
2023-11-15T11:57:28.560Z,15.38
2023-11-15T11:58:28.624Z,15.13
2023-11-15T11:59:28.601Z,15.01
2023-11-15T12:00:28.568Z,14.80
2023-11-15T12:01:28.549Z,14.88
2023-11-15T12:02:28.536Z,14.91
2023-11-15T12:03:28.713Z,15.02
2023-11-15T12:04:28.804Z,15.09
2023-11-15T12:05:28.529Z,14.68
2023-11-15T12:06:28.521Z,14.37
2023-11-15T12:07:28.493Z,14.21
2023-11-15T12:08:28.486Z,14.09
2023-11-15T12:09:28.489Z,14.19
2023-11-15T12:10:28.501Z,14.32
2023-11-15T12:11:28.478Z,14.28
2023-11-15T12:12:28.478Z,14.44
2023-11-15T12:13:28.457Z,14.35
2023-11-15T12:14:28.456Z,14.44
2023-11-15T12:15:28.719Z,14.29
2023-11-15T12:16:28.480Z,14.32
2023-11-15T12:17:28.441Z,14.49
2023-11-15T12:18:28.541Z,15.05
2023-11-15T12:19:28.414Z,15.60
2023-11-15T12:20:28.432Z,15.59
2023-11-15T12:21:28.401Z,15.39
2023-11-15T12:22:28.396Z,15.24
2023-11-15T12:23:28.384Z,15.02
2023-11-15T12:24:28.421Z,14.72
2023-11-15T12:25:28.393Z,14.47
2023-11-15T12:26:28.364Z,14.38
2023-11-15T12:27:28.362Z,14.39
2023-11-15T12:28:28.350Z,14.24
2023-11-15T12:29:28.375Z,14.32
2023-11-15T12:30:28.377Z,14.34
2023-11-15T12:31:28.334Z,14.32
2023-11-15T12:32:28.322Z,14.19
2023-11-15T12:33:28.410Z,14.20
2023-11-15T12:34:28.379Z,14.04
2023-11-15T12:35:28.306Z,13.71
2023-11-15T12:36:28.287Z,13.41
2023-11-15T12:37:28.299Z,13.09
2023-11-15T12:38:28.294Z,13.04
2023-11-15T12:39:28.269Z,12.77
2023-11-15T12:40:28.299Z,12.59
2023-11-15T12:41:28.256Z,12.42
2023-11-15T12:42:28.258Z,12.41
2023-11-15T12:43:28.271Z,12.42
2023-11-15T12:44:28.252Z,12.27
2023-11-15T12:45:28.305Z,12.23
2023-11-15T12:46:28.250Z,12.26
2023-11-15T12:47:28.282Z,12.44
2023-11-15T12:48:28.282Z,12.56
2023-11-15T12:49:28.402Z,12.63
2023-11-15T12:50:28.198Z,12.59
2023-11-15T12:51:28.183Z,12.75
2023-11-15T12:52:29.187Z,12.71
2023-11-15T12:53:28.202Z,12.79
2023-11-15T12:54:28.189Z,12.75
2023-11-15T12:55:28.178Z,12.89
2023-11-15T12:56:28.155Z,12.88
2023-11-15T12:57:29.115Z,13.22
2023-11-15T12:58:28.128Z,14.06
2023-11-15T12:59:28.138Z,14.28
2023-11-15T13:00:28.139Z,14.68
2023-11-15T13:01:28.143Z,14.93
2023-11-15T13:02:28.531Z,15.76
2023-11-15T13:03:28.224Z,16.74
2023-11-15T13:04:28.183Z,17.30
2023-11-15T13:05:28.103Z,17.20
2023-11-15T13:06:30.536Z,17.57
2023-11-15T13:07:28.143Z,17.81
2023-11-15T13:08:28.071Z,17.94
2023-11-15T13:09:28.120Z,17.69
2023-11-15T13:10:28.086Z,17.53